createdAt,value
2018-09-21T00:00:00.255Z,16.00
2018-09-21T00:02:29.993Z,15.80
2018-09-21T00:05:00.352Z,17.53
2018-09-21T00:07:30.614Z,17.27
2018-09-21T00:10:01.774Z,15.83
2018-09-21T00:12:35.265Z,16.50
2018-09-21T00:15:05.437Z,16.50
2018-09-21T00:17:38.406Z,15.63
2018-09-21T00:20:08.359Z,16.37
2018-09-21T00:22:38.555Z,16.73
2018-09-21T00:25:09.212Z,14.80
2018-09-21T00:27:38.934Z,15.20
2018-09-21T00:30:08.601Z,16.60
2018-09-21T00:32:38.932Z,15.23
2018-09-21T00:35:09.990Z,16.27
2018-09-21T00:37:40.082Z,15.20
2018-09-21T00:40:10.321Z,17.37
2018-09-21T00:42:42.477Z,16.83
2018-09-21T00:45:12.089Z,16.03
2018-09-21T00:47:42.036Z,15.87
2018-09-21T00:50:12.272Z,16.37
2018-09-21T00:52:42.573Z,16.67
2018-09-21T00:55:12.328Z,16.07
2018-09-21T00:57:43.449Z,15.57
2018-09-21T01:00:13.172Z,16.57
2018-09-21T01:02:43.605Z,16.17
2018-09-21T01:05:13.870Z,16.53
2018-09-21T01:07:44.169Z,15.97
2018-09-21T01:10:14.357Z,16.03
2018-09-21T01:12:44.005Z,16.07
2018-09-21T01:15:14.850Z,17.20
2018-09-21T01:17:45.265Z,15.03
2018-09-21T01:20:15.584Z,15.80
2018-09-21T01:22:46.089Z,15.13
2018-09-21T01:25:16.908Z,15.10
2018-09-21T01:27:50.189Z,16.17
2018-09-21T01:30:20.303Z,16.40
2018-09-21T01:33:00.896Z,16.10
2018-09-21T01:35:31.007Z,15.80
2018-09-21T01:38:01.810Z,16.97
2018-09-21T01:40:33.121Z,16.50
2018-09-21T01:43:02.908Z,17.93
2018-09-21T01:45:32.589Z,16.80
2018-09-21T01:48:03.501Z,16.20
2018-09-21T01:50:33.269Z,15.77
2018-09-21T01:53:02.877Z,15.50
2018-09-21T01:55:32.358Z,17.20
2018-09-21T01:58:01.966Z,15.50
2018-09-21T02:00:31.883Z,16.87
2018-09-21T02:03:01.514Z,16.27
2018-09-21T02:05:31.902Z,15.67
2018-09-21T02:08:02.224Z,14.87
2018-09-21T02:10:32.730Z,15.70
2018-09-21T02:13:02.907Z,15.03
2018-09-21T02:15:32.518Z,15.77
2018-09-21T02:18:02.103Z,15.43
2018-09-21T02:20:33.025Z,15.07
2018-09-21T02:23:03.293Z,15.93
2018-09-21T02:25:33.577Z,14.43
2018-09-21T02:28:03.625Z,15.57
2018-09-21T02:30:33.903Z,14.70
2018-09-21T02:33:04.039Z,14.57
2018-09-21T02:35:34.239Z,15.20
2018-09-21T02:38:04.429Z,14.70
2018-09-21T02:40:34.220Z,15.27
2018-09-21T02:43:04.467Z,14.50
2018-09-21T02:45:38.006Z,14.37
2018-09-21T02:48:09.211Z,15.43
2018-09-21T02:50:38.979Z,15.47
2018-09-21T02:53:09.485Z,15.53
2018-09-21T02:55:39.133Z,15.33
2018-09-21T02:58:09.000Z,16.73
2018-09-21T03:00:38.736Z,15.77
2018-09-21T03:03:08.476Z,17.80
2018-09-21T03:05:38.160Z,19.40
2018-09-21T03:08:08.386Z,18.23
2018-09-21T03:10:38.953Z,19.97
2018-09-21T03:13:08.772Z,20.70
2018-09-21T03:15:39.069Z,21.80
2018-09-21T03:18:09.857Z,21.57
2018-09-21T03:20:39.419Z,21.43
2018-09-21T03:23:09.623Z,24.30
2018-09-21T03:25:46.168Z,22.60
2018-09-21T03:28:15.996Z,22.00
2018-09-21T03:30:45.645Z,22.57
2018-09-21T03:33:15.833Z,21.87
2018-09-21T03:35:45.876Z,23.17
2018-09-21T03:38:15.596Z,21.87
2018-09-21T03:40:45.885Z,23.10
2018-09-21T03:43:16.517Z,21.43
2018-09-21T03:45:46.805Z,20.80
2018-09-21T03:48:17.076Z,22.67
2018-09-21T03:50:46.785Z,21.43
2018-09-21T03:53:17.817Z,22.20
2018-09-21T03:55:47.633Z,22.40
2018-09-21T03:58:17.265Z,24.33
2018-09-21T04:00:48.083Z,23.07
2018-09-21T04:03:18.073Z,23.17
2018-09-21T04:05:48.691Z,21.83
2018-09-21T04:08:19.257Z,22.40
2018-09-21T04:10:49.663Z,22.53
2018-09-21T04:13:19.399Z,20.70
2018-09-21T04:15:49.128Z,22.70
2018-09-21T04:18:18.754Z,21.03
2018-09-21T04:20:49.496Z,20.53
2018-09-21T04:23:20.361Z,21.90
2018-09-21T04:25:50.437Z,20.20
2018-09-21T04:28:20.797Z,19.00
2018-09-21T04:30:51.798Z,19.13
2018-09-21T04:33:22.012Z,19.73
2018-09-21T04:35:51.841Z,20.03
2018-09-21T04:38:21.608Z,21.30
2018-09-21T04:40:51.316Z,20.10
2018-09-21T04:43:21.029Z,21.10
2018-09-21T04:45:52.734Z,20.93
2018-09-21T04:48:22.476Z,21.37
2018-09-21T04:50:53.207Z,20.80
2018-09-21T04:53:23.003Z,21.10
2018-09-21T04:55:52.875Z,20.73
2018-09-21T04:58:23.312Z,20.30
2018-09-21T05:00:54.263Z,21.37
2018-09-21T05:03:25.682Z,20.73
2018-09-21T05:05:55.718Z,21.47
2018-09-21T05:08:25.365Z,22.37
2018-09-21T05:10:55.804Z,22.37
2018-09-21T05:13:26.093Z,23.93
2018-09-21T05:15:55.970Z,22.60
2018-09-21T05:18:25.482Z,23.87
2018-09-21T05:20:55.921Z,23.33
2018-09-21T05:23:25.472Z,24.60
2018-09-21T05:25:55.037Z,24.37
2018-09-21T05:28:25.424Z,23.50
2018-09-21T05:30:55.108Z,23.60
2018-09-21T05:33:25.597Z,24.60
2018-09-21T05:35:55.400Z,24.20
2018-09-21T05:38:25.207Z,23.57
2018-09-21T05:40:56.033Z,23.57
2018-09-21T05:43:25.904Z,25.43
2018-09-21T05:45:55.640Z,26.70
2018-09-21T05:48:26.578Z,24.53
2018-09-21T05:50:56.703Z,24.27
2018-09-21T05:53:27.025Z,25.70
2018-09-21T05:55:56.800Z,24.97
2018-09-21T05:58:26.379Z,24.13
2018-09-21T06:00:56.513Z,24.50
2018-09-21T06:03:26.570Z,24.50
2018-09-21T06:05:56.213Z,24.50
2018-09-21T06:08:26.553Z,24.80
2018-09-21T06:10:56.199Z,25.50
2018-09-21T06:13:25.971Z,25.20
2018-09-21T06:15:56.406Z,26.90
2018-09-21T06:18:26.149Z,24.70
2018-09-21T06:20:56.401Z,26.83
2018-09-21T06:23:27.539Z,26.13
2018-09-21T06:26:00.614Z,24.10
2018-09-21T06:28:31.085Z,24.73
2018-09-21T06:31:01.377Z,25.00
2018-09-21T06:33:31.170Z,26.67
2018-09-21T06:36:01.792Z,25.63
2018-09-21T06:38:31.444Z,25.00
2018-09-21T06:41:01.822Z,26.20
2018-09-21T06:43:32.077Z,24.43
2018-09-21T06:46:01.745Z,24.83
2018-09-21T06:48:32.193Z,24.67
2018-09-21T06:51:02.707Z,26.70
2018-09-21T06:53:32.431Z,25.00
2018-09-21T06:56:04.579Z,26.27
2018-09-21T06:58:35.825Z,24.40
2018-09-21T07:01:06.730Z,25.33
2018-09-21T07:03:36.457Z,25.70
2018-09-21T07:06:06.286Z,25.10
2018-09-21T07:08:36.157Z,24.47
2018-09-21T07:11:06.592Z,25.03
2018-09-21T07:13:37.005Z,24.10
2018-09-21T07:16:08.140Z,23.70
2018-09-21T07:18:38.142Z,24.90
2018-09-21T07:21:09.284Z,23.70
2018-09-21T07:23:39.426Z,23.07
2018-09-21T07:26:10.406Z,22.27
2018-09-21T07:28:40.512Z,22.10
2018-09-21T07:31:11.168Z,20.97
2018-09-21T07:33:41.198Z,23.33
2018-09-21T07:36:10.960Z,20.57
2018-09-21T07:38:40.542Z,21.77
2018-09-21T07:41:11.388Z,20.20
2018-09-21T07:43:41.063Z,21.60
2018-09-21T07:46:10.676Z,21.43
2018-09-21T07:48:40.429Z,20.70
2018-09-21T07:51:10.401Z,21.07
2018-09-21T07:53:40.079Z,19.40
2018-09-21T07:56:10.126Z,19.90
2018-09-21T07:58:40.615Z,19.87
2018-09-21T08:01:10.712Z,19.73
2018-09-21T08:03:40.688Z,18.10
2018-09-21T08:06:11.634Z,19.80
2018-09-21T08:08:41.891Z,17.70
2018-09-21T08:11:11.578Z,17.73
2018-09-21T08:13:41.930Z,18.40
2018-09-21T08:16:12.370Z,18.77
2018-09-21T08:18:42.532Z,18.93
2018-09-21T08:21:12.203Z,17.20
2018-09-21T08:23:41.807Z,17.30
2018-09-21T08:26:11.298Z,18.20
2018-09-21T08:28:40.982Z,17.07
2018-09-21T08:31:10.596Z,16.87
2018-09-21T08:33:40.237Z,16.77
2018-09-21T08:36:09.801Z,15.60
2018-09-21T08:38:40.020Z,16.17
2018-09-21T08:41:09.781Z,15.90
2018-09-21T08:43:39.444Z,15.77
2018-09-21T08:46:08.960Z,14.83
2018-09-21T08:48:39.409Z,12.67
2018-09-21T08:51:13.821Z,13.03
2018-09-21T08:53:45.229Z,14.10
2018-09-21T08:56:14.976Z,13.43
2018-09-21T08:58:46.159Z,13.37
2018-09-21T09:01:15.642Z,13.80
2018-09-21T09:03:45.253Z,13.80
2018-09-21T09:06:15.373Z,12.40
2018-09-21T09:08:45.719Z,12.57
2018-09-21T09:11:15.605Z,12.80
2018-09-21T09:13:45.188Z,12.80
2018-09-21T09:16:15.363Z,12.27
2018-09-21T09:18:44.813Z,12.43
2018-09-21T09:21:14.316Z,12.83
2018-09-21T09:23:44.613Z,12.70
2018-09-21T09:26:14.453Z,12.40
2018-09-21T09:28:45.104Z,12.80
2018-09-21T09:31:19.320Z,12.87
2018-09-21T09:33:49.751Z,13.37
2018-09-21T09:36:19.518Z,12.80
2018-09-21T09:38:48.958Z,13.33
2018-09-21T09:41:19.445Z,12.60
2018-09-21T09:43:49.203Z,12.07
2018-09-21T09:46:19.599Z,12.70
2018-09-21T09:48:50.125Z,11.63
2018-09-21T09:51:21.495Z,12.13
2018-09-21T09:53:52.479Z,11.80
2018-09-21T09:56:22.315Z,11.90
2018-09-21T09:58:52.517Z,12.07
2018-09-21T10:01:22.763Z,12.70
2018-09-21T10:03:52.377Z,11.90
2018-09-21T10:06:22.029Z,11.90
2018-09-21T10:08:52.704Z,11.77
2018-09-21T10:11:22.371Z,11.67
2018-09-21T10:13:52.950Z,11.83
2018-09-21T10:16:22.689Z,11.40
2018-09-21T10:18:52.304Z,11.80
2018-09-21T10:21:22.324Z,12.30
2018-09-21T10:23:52.850Z,10.97
2018-09-21T10:26:23.691Z,11.30
2018-09-21T10:28:54.628Z,10.83
2018-09-21T10:31:24.130Z,9.93
2018-09-21T10:33:54.301Z,10.80
2018-09-21T10:36:24.827Z,11.47
2018-09-21T10:38:54.409Z,10.20
2018-09-21T10:41:24.139Z,10.37
2018-09-21T10:43:55.468Z,10.40
2018-09-21T10:46:25.473Z,9.33
2018-09-21T10:48:55.153Z,10.37
2018-09-21T10:51:24.900Z,9.83
2018-09-21T10:53:55.359Z,10.87
2018-09-21T10:56:24.981Z,9.03
2018-09-21T10:58:55.056Z,9.97
2018-09-21T11:01:24.702Z,10.00
2018-09-21T11:03:54.214Z,10.30
2018-09-21T11:06:24.432Z,10.57
2018-09-21T11:08:53.969Z,10.40
2018-09-21T11:11:23.506Z,10.43
2018-09-21T11:13:53.374Z,10.20
2018-09-21T11:16:22.974Z,10.83
2018-09-21T11:18:52.473Z,9.33
2018-09-21T11:21:22.789Z,8.63
2018-09-21T11:23:52.225Z,10.10
2018-09-21T11:26:21.747Z,10.13
2018-09-21T11:28:51.257Z,9.70
2018-09-21T11:31:21.528Z,9.30
2018-09-21T11:33:51.399Z,9.20
2018-09-21T11:36:20.956Z,9.10
2018-09-21T11:38:50.481Z,10.20
2018-09-21T11:41:20.748Z,9.50
2018-09-21T11:43:50.429Z,9.10
2018-09-21T11:46:20.238Z,10.33
2018-09-21T11:48:50.676Z,8.80
2018-09-21T11:51:20.796Z,8.87
2018-09-21T11:53:50.460Z,9.10
2018-09-21T11:56:20.197Z,9.13
2018-09-21T11:58:49.801Z,8.60
2018-09-21T12:01:20.122Z,9.53
2018-09-21T12:03:50.916Z,8.90
2018-09-21T12:06:21.723Z,9.67
2018-09-21T12:08:51.927Z,9.03
2018-09-21T12:11:21.873Z,10.13
2018-09-21T12:13:51.911Z,9.90
2018-09-21T12:16:24.258Z,9.83
2018-09-21T12:18:54.015Z,9.73
2018-09-21T12:24:01.651Z,9.33
2018-09-21T12:26:31.633Z,10.03
2018-09-21T12:29:02.852Z,10.23
2018-09-21T12:31:32.505Z,9.30
2018-09-21T12:34:03.302Z,10.37
2018-09-21T12:36:33.430Z,10.07
2018-09-21T12:39:05.584Z,9.63
2018-09-21T12:41:35.295Z,9.83
2018-09-21T12:44:05.022Z,9.10
2018-09-21T12:46:36.021Z,9.03
2018-09-21T12:49:06.099Z,10.43
2018-09-21T12:51:36.144Z,9.90
2018-09-21T12:54:05.671Z,9.57
2018-09-21T12:56:35.527Z,9.47
2018-09-21T12:59:06.735Z,9.30
2018-09-21T13:01:37.033Z,9.40
2018-09-21T13:04:07.460Z,9.43
2018-09-21T13:06:38.116Z,10.40
2018-09-21T13:09:09.425Z,10.20
2018-09-21T13:11:39.965Z,10.13
2018-09-21T13:14:09.646Z,9.57
2018-09-21T13:16:39.598Z,9.50
2018-09-21T13:19:09.355Z,9.90
2018-09-21T13:21:39.770Z,9.30
2018-09-21T13:24:09.529Z,10.00
2018-09-21T13:26:39.205Z,10.50
2018-09-21T13:29:09.614Z,10.10
2018-09-21T13:31:41.116Z,10.50
2018-09-21T13:34:10.767Z,9.80
2018-09-21T13:36:40.779Z,9.07
2018-09-21T13:39:11.769Z,9.40
2018-09-21T13:41:42.189Z,9.30
2018-09-21T13:44:11.820Z,9.20
2018-09-21T13:46:41.610Z,10.00
2018-09-21T13:49:11.858Z,10.57
2018-09-21T13:51:41.660Z,9.50
2018-09-21T13:54:12.166Z,9.77
2018-09-21T13:56:42.380Z,9.80
2018-09-21T13:59:12.756Z,9.37
2018-09-21T14:01:43.073Z,9.27
2018-09-21T14:04:12.594Z,9.10
2018-09-21T14:06:43.336Z,9.20
2018-09-21T14:09:13.448Z,9.80
2018-09-21T14:11:43.052Z,9.30
2018-09-21T14:14:12.756Z,9.70
2018-09-21T14:16:42.581Z,9.13
2018-09-21T14:19:13.567Z,9.70
2018-09-21T14:21:43.667Z,8.60
2018-09-21T14:24:13.426Z,8.60
2018-09-21T14:26:43.121Z,9.40
2018-09-21T14:29:13.350Z,8.70
2018-09-21T14:31:42.913Z,8.40
2018-09-21T14:34:12.701Z,8.50
2018-09-21T14:36:42.666Z,9.53
2018-09-21T14:39:12.776Z,9.07
2018-09-21T14:41:42.391Z,9.00
2018-09-21T14:44:12.052Z,9.60
2018-09-21T14:46:42.469Z,8.80
2018-09-21T14:49:11.959Z,9.97
2018-09-21T14:51:43.173Z,10.27
2018-09-21T14:54:13.986Z,10.77
2018-09-21T14:56:44.011Z,10.20
2018-09-21T14:59:13.568Z,9.43
2018-09-21T15:01:43.832Z,8.80
2018-09-21T15:04:14.229Z,9.30
2018-09-21T15:06:45.185Z,8.53
2018-09-21T15:09:15.411Z,8.80
2018-09-21T15:11:45.162Z,9.07
2018-09-21T15:14:15.271Z,8.47
2018-09-21T15:16:45.574Z,8.97
2018-09-21T15:19:15.190Z,9.70
2018-09-21T15:21:44.992Z,11.67
2018-09-21T15:24:15.541Z,11.90
2018-09-21T15:26:45.107Z,9.33
2018-09-21T15:29:16.079Z,8.50
2018-09-21T15:31:45.674Z,10.63
2018-09-21T15:34:15.929Z,10.57
2018-09-21T15:36:45.620Z,11.13
2018-09-21T15:39:15.190Z,13.70
2018-09-21T15:41:45.586Z,11.17
2018-09-21T15:44:15.240Z,11.47
2018-09-21T15:46:45.601Z,10.03
2018-09-21T15:49:15.146Z,10.47
2018-09-21T15:51:44.756Z,12.90
2018-09-21T15:54:14.403Z,10.90
2018-09-21T15:56:45.143Z,15.57
2018-09-21T15:59:15.285Z,13.80
2018-09-21T16:01:45.002Z,22.47
2018-09-21T16:04:14.612Z,18.43
2018-09-21T16:06:44.217Z,19.40
2018-09-21T16:09:13.863Z,20.10
2018-09-21T16:11:44.223Z,15.50
2018-09-21T16:14:14.166Z,15.30
2018-09-21T16:16:44.378Z,25.93
2018-09-21T16:19:14.603Z,19.70
2018-09-21T16:21:44.807Z,14.87
2018-09-21T16:24:14.345Z,31.03
2018-09-21T16:26:45.225Z,14.00
2018-09-21T16:29:14.973Z,21.77
2018-09-21T16:31:46.575Z,69.30
2018-09-21T16:34:16.789Z,64.73
2018-09-21T16:36:47.382Z,30.20
2018-09-21T16:39:17.260Z,30.77
2018-09-21T16:41:46.877Z,131.23
2018-09-21T16:44:17.620Z,150.97
2018-09-21T16:46:47.607Z,76.33
2018-09-21T16:49:17.366Z,43.50
2018-09-21T16:51:48.368Z,20.83
2018-09-21T16:54:18.951Z,17.53
2018-09-21T16:56:48.813Z,21.67
2018-09-21T16:59:18.712Z,18.80
2018-09-21T17:01:50.142Z,18.93
2018-09-21T17:04:21.503Z,16.30
2018-09-21T17:06:51.756Z,15.70
2018-09-21T17:09:21.332Z,17.20
2018-09-21T17:11:50.998Z,23.67
2018-09-21T17:14:20.530Z,15.40
2018-09-21T17:16:50.342Z,12.97
2018-09-21T17:19:20.208Z,10.07
2018-09-21T17:21:49.976Z,10.33
2018-09-21T17:24:19.518Z,10.50
2018-09-21T17:26:49.138Z,13.83
2018-09-21T17:29:18.841Z,11.43
2018-09-21T17:31:50.037Z,12.30
2018-09-21T17:34:20.360Z,13.20
2018-09-21T17:36:50.937Z,14.23
2018-09-21T17:39:21.601Z,35.00
2018-09-21T17:41:51.329Z,34.70
2018-09-21T17:44:21.742Z,25.13
2018-09-21T17:46:51.376Z,24.70
2018-09-21T17:49:21.106Z,23.87
2018-09-21T17:51:50.989Z,20.97
2018-09-21T17:54:22.321Z,38.63
2018-09-21T17:56:51.990Z,27.63
2018-09-21T17:59:21.765Z,30.97
2018-09-21T18:01:51.380Z,31.60
2018-09-21T18:04:20.905Z,21.57
2018-09-21T18:06:50.600Z,19.07
2018-09-21T18:09:20.797Z,24.57
2018-09-21T18:11:50.543Z,24.60
2018-09-21T18:14:20.806Z,34.87
2018-09-21T18:16:50.498Z,30.83
2018-09-21T18:19:20.620Z,30.70
2018-09-21T18:21:50.135Z,38.67
2018-09-21T18:24:19.627Z,33.77
2018-09-21T18:26:50.023Z,22.53
2018-09-21T18:29:21.040Z,23.60
2018-09-21T18:31:50.617Z,17.27
2018-09-21T18:34:20.154Z,15.23
2018-09-21T18:36:49.632Z,16.27
2018-09-21T18:39:19.115Z,14.97
2018-09-21T18:41:49.907Z,14.20
2018-09-21T18:44:20.437Z,14.60
2018-09-21T18:46:50.753Z,14.00
2018-09-21T18:49:20.566Z,13.13
2018-09-21T18:51:51.025Z,13.60
2018-09-21T18:54:20.900Z,12.57
2018-09-21T18:56:52.412Z,12.93
2018-09-21T18:59:27.143Z,15.33
2018-09-21T19:01:56.685Z,14.30
2018-09-21T19:04:26.983Z,12.70
2018-09-21T19:06:56.522Z,13.27
2018-09-21T19:09:26.920Z,12.57
2018-09-21T19:11:56.478Z,14.60
2018-09-21T19:14:26.663Z,13.67
2018-09-21T19:16:56.197Z,12.20
2018-09-21T19:19:26.074Z,13.90
2018-09-21T19:21:55.881Z,14.00
2018-09-21T19:24:26.146Z,15.37
2018-09-21T19:26:57.701Z,14.50
2018-09-21T19:29:29.039Z,13.73
2018-09-21T19:32:00.501Z,13.30
2018-09-21T19:34:30.347Z,14.67
2018-09-21T19:37:04.630Z,14.27
2018-09-21T19:39:40.657Z,14.00
2018-09-21T19:42:11.007Z,14.77
2018-09-21T19:44:40.527Z,15.30
2018-09-21T19:47:10.455Z,15.83
2018-09-21T19:49:40.384Z,15.30
2018-09-21T19:52:10.839Z,15.33
2018-09-21T19:54:40.569Z,14.93
2018-09-21T19:57:16.581Z,14.10
2018-09-21T19:59:46.266Z,15.77
2018-09-21T20:02:15.989Z,15.30
2018-09-21T20:04:46.151Z,15.73
2018-09-21T20:07:15.892Z,14.60
2018-09-21T20:09:45.735Z,15.57
2018-09-21T20:12:15.401Z,15.20
2018-09-21T20:14:44.897Z,15.80
2018-09-21T20:17:14.534Z,15.80
2018-09-21T20:19:44.939Z,14.83
2018-09-21T20:22:15.780Z,15.47
2018-09-21T20:24:45.659Z,15.93
2018-09-21T20:27:15.311Z,16.10
2018-09-21T20:29:45.396Z,17.17
2018-09-21T20:32:20.301Z,17.13
2018-09-21T20:34:50.347Z,17.07
2018-09-21T20:37:20.083Z,15.63
2018-09-21T20:39:50.290Z,16.67
2018-09-21T20:42:20.424Z,15.93
2018-09-21T20:44:50.009Z,17.40
2018-09-21T20:47:30.530Z,16.37
2018-09-21T20:50:05.293Z,17.50
2018-09-21T20:52:35.753Z,15.60
2018-09-21T20:55:05.681Z,18.00
2018-09-21T20:57:36.013Z,17.63
2018-09-21T21:00:05.969Z,17.80
2018-09-21T21:02:36.305Z,17.20
2018-09-21T21:05:06.675Z,17.17
2018-09-21T21:07:36.393Z,16.80
2018-09-21T21:10:06.052Z,17.40
2018-09-21T21:12:35.577Z,17.10
2018-09-21T21:15:05.432Z,17.60
2018-09-21T21:17:36.567Z,17.20
2018-09-21T21:20:06.749Z,17.47
2018-09-21T21:22:36.217Z,18.20
2018-09-21T21:25:06.567Z,17.03
2018-09-21T21:27:37.374Z,17.67
2018-09-21T21:30:07.079Z,17.13
2018-09-21T21:32:36.689Z,18.00
2018-09-21T21:35:06.705Z,17.20
2018-09-21T21:37:36.358Z,17.70
2018-09-21T21:40:06.959Z,19.20
2018-09-21T21:42:36.781Z,17.43
2018-09-21T21:45:06.441Z,18.17
2018-09-21T21:47:36.047Z,18.17
2018-09-21T21:50:05.622Z,18.17
2018-09-21T21:52:36.318Z,15.60
2018-09-21T21:55:05.897Z,13.80
2018-09-21T21:57:36.731Z,11.57
2018-09-21T22:00:08.726Z,9.87
2018-09-21T22:02:40.645Z,9.83
2018-09-21T22:05:10.729Z,9.60
2018-09-21T22:07:41.757Z,9.23
2018-09-21T22:10:14.086Z,7.93
2018-09-21T22:12:50.720Z,6.77
2018-09-21T22:15:20.521Z,7.60
2018-09-21T22:17:51.154Z,8.20
2018-09-21T22:20:20.999Z,7.87
2018-09-21T22:22:51.046Z,9.70
2018-09-21T22:25:20.829Z,8.23
2018-09-21T22:27:50.455Z,8.23
2018-09-21T22:30:20.662Z,7.93
2018-09-21T22:32:51.320Z,8.43
2018-09-21T22:35:21.126Z,8.00
2018-09-21T22:37:51.382Z,9.17
2018-09-21T22:40:21.884Z,8.70
2018-09-21T22:42:52.225Z,9.33
2018-09-21T22:45:22.476Z,8.80
2018-09-21T22:47:52.076Z,9.90
2018-09-21T22:50:22.696Z,8.73
2018-09-21T22:52:52.574Z,8.90
2018-09-21T22:55:22.254Z,8.50
2018-09-21T22:57:52.574Z,8.77
2018-09-21T23:00:23.361Z,8.50
2018-09-21T23:02:54.752Z,7.63
2018-09-21T23:05:28.328Z,8.03
2018-09-21T23:08:03.321Z,7.50
2018-09-21T23:10:34.288Z,8.03
2018-09-21T23:13:04.628Z,6.60
2018-09-21T23:15:35.255Z,7.07
2018-09-21T23:18:04.804Z,7.90
2018-09-21T23:20:36.003Z,6.73
2018-09-21T23:23:06.355Z,6.67
2018-09-21T23:25:35.844Z,6.90
2018-09-21T23:28:06.015Z,7.37
2018-09-21T23:30:36.367Z,6.50
2018-09-21T23:33:05.961Z,5.33
2018-09-21T23:35:35.472Z,5.70
2018-09-21T23:38:06.232Z,5.87
2018-09-21T23:40:35.628Z,5.87
2018-09-21T23:43:05.888Z,6.40
2018-09-21T23:45:35.451Z,7.00
2018-09-21T23:48:05.095Z,5.90
2018-09-21T23:50:35.825Z,6.00
2018-09-21T23:53:06.071Z,6.40
2018-09-21T23:55:35.828Z,5.70
2018-09-21T23:58:07.089Z,6.00
